sensor_id;sensor_type;location;lat;lon;timestamp;temperature;humidity
20831;DHT22;10576;53.556;9.868;2023-04-08T00:01:02;5.90;99.90
20831;DHT22;10576;53.556;9.868;2023-04-08T00:03:27;6.00;99.90
20831;DHT22;10576;53.556;9.868;2023-04-08T00:05:53;6.00;99.90
20831;DHT22;10576;53.556;9.868;2023-04-08T00:08:19;5.70;99.90
20831;DHT22;10576;53.556;9.868;2023-04-08T00:10:44;5.90;99.90
20831;DHT22;10576;53.556;9.868;2023-04-08T00:13:10;5.80;99.90
20831;DHT22;10576;53.556;9.868;2023-04-08T00:15:36;5.70;99.90
20831;DHT22;10576;53.556;9.868;2023-04-08T00:18:02;5.90;99.90
20831;DHT22;10576;53.556;9.868;2023-04-08T00:20:28;5.70;99.90
20831;DHT22;10576;53.556;9.868;2023-04-08T00:22:53;5.70;99.90
20831;DHT22;10576;53.556;9.868;2023-04-08T00:25:21;5.80;99.90
20831;DHT22;10576;53.556;9.868;2023-04-08T00:27:46;5.70;99.90
20831;DHT22;10576;53.556;9.868;2023-04-08T00:30:12;5.80;99.90
20831;DHT22;10576;53.556;9.868;2023-04-08T00:32:38;5.90;99.90
20831;DHT22;10576;53.556;9.868;2023-04-08T00:35:04;5.80;99.90
20831;DHT22;10576;53.556;9.868;2023-04-08T00:37:29;6.00;99.90
20831;DHT22;10576;53.556;9.868;2023-04-08T00:39:56;5.90;99.90
20831;DHT22;10576;53.556;9.868;2023-04-08T00:42:21;5.90;99.90
20831;DHT22;10576;53.556;9.868;2023-04-08T00:44:47;6.00;99.90
20831;DHT22;10576;53.556;9.868;2023-04-08T00:52:08;5.90;99.90
20831;DHT22;10576;53.556;9.868;2023-04-08T00:54:36;5.80;99.90
20831;DHT22;10576;53.556;9.868;2023-04-08T00:57:03;5.90;99.90
20831;DHT22;10576;53.556;9.868;2023-04-08T00:59:30;5.90;99.90
20831;DHT22;10576;53.556;9.868;2023-04-08T01:02:09;5.90;99.90
20831;DHT22;10576;53.556;9.868;2023-04-08T01:07:17;6.00;99.90
20831;DHT22;10576;53.556;9.868;2023-04-08T01:09:50;5.90;99.90
20831;DHT22;10576;53.556;9.868;2023-04-08T01:12:28;5.90;99.90
20831;DHT22;10576;53.556;9.868;2023-04-08T01:15:02;6.10;99.90
20831;DHT22;10576;53.556;9.868;2023-04-08T01:17:29;6.10;99.90
20831;DHT22;10576;53.556;9.868;2023-04-08T01:19:56;5.90;99.90
20831;DHT22;10576;53.556;9.868;2023-04-08T01:24:56;6.10;99.90
20831;DHT22;10576;53.556;9.868;2023-04-08T01:27:24;6.20;99.90
20831;DHT22;10576;53.556;9.868;2023-04-08T01:29:52;6.10;99.90
20831;DHT22;10576;53.556;9.868;2023-04-08T01:32:18;6.10;99.90
20831;DHT22;10576;53.556;9.868;2023-04-08T01:34:44;6.10;99.90
20831;DHT22;10576;53.556;9.868;2023-04-08T01:37:11;6.00;99.90
20831;DHT22;10576;53.556;9.868;2023-04-08T01:39:37;6.10;99.90
20831;DHT22;10576;53.556;9.868;2023-04-08T01:42:05;5.80;99.90
20831;DHT22;10576;53.556;9.868;2023-04-08T01:44:30;6.00;99.90
20831;DHT22;10576;53.556;9.868;2023-04-08T01:46:58;5.60;99.90
20831;DHT22;10576;53.556;9.868;2023-04-08T01:49:25;5.80;99.90
20831;DHT22;10576;53.556;9.868;2023-04-08T01:51:52;5.90;99.90
20831;DHT22;10576;53.556;9.868;2023-04-08T01:54:19;6.00;99.90
20831;DHT22;10576;53.556;9.868;2023-04-08T01:56:45;6.00;99.90
20831;DHT22;10576;53.556;9.868;2023-04-08T01:59:13;5.80;99.90
20831;DHT22;10576;53.556;9.868;2023-04-08T02:01:41;5.90;99.90
20831;DHT22;10576;53.556;9.868;2023-04-08T02:04:08;5.90;99.90
20831;DHT22;10576;53.556;9.868;2023-04-08T02:06:34;6.20;99.90
20831;DHT22;10576;53.556;9.868;2023-04-08T02:09:00;6.10;99.90
20831;DHT22;10576;53.556;9.868;2023-04-08T02:11:26;5.80;99.90
20831;DHT22;10576;53.556;9.868;2023-04-08T02:13:52;6.00;99.90
20831;DHT22;10576;53.556;9.868;2023-04-08T02:16:22;5.80;99.90
20831;DHT22;10576;53.556;9.868;2023-04-08T02:19:10;5.90;99.90
20831;DHT22;10576;53.556;9.868;2023-04-08T02:21:43;5.90;99.90
20831;DHT22;10576;53.556;9.868;2023-04-08T02:24:12;5.80;99.90
20831;DHT22;10576;53.556;9.868;2023-04-08T02:26:38;5.90;99.90
20831;DHT22;10576;53.556;9.868;2023-04-08T02:29:12;5.80;99.90
20831;DHT22;10576;53.556;9.868;2023-04-08T02:31:41;6.10;99.90
20831;DHT22;10576;53.556;9.868;2023-04-08T02:34:09;6.10;99.90
20831;DHT22;10576;53.556;9.868;2023-04-08T02:36:35;6.00;99.90
20831;DHT22;10576;53.556;9.868;2023-04-08T02:39:02;6.00;99.90
20831;DHT22;10576;53.556;9.868;2023-04-08T02:41:28;5.90;99.90
20831;DHT22;10576;53.556;9.868;2023-04-08T02:43:55;6.00;99.90
20831;DHT22;10576;53.556;9.868;2023-04-08T02:46:20;5.70;99.90
20831;DHT22;10576;53.556;9.868;2023-04-08T02:48:46;5.70;99.90
20831;DHT22;10576;53.556;9.868;2023-04-08T02:51:12;5.70;99.90
20831;DHT22;10576;53.556;9.868;2023-04-08T02:53:38;5.70;99.90
20831;DHT22;10576;53.556;9.868;2023-04-08T02:56:03;5.70;99.90
20831;DHT22;10576;53.556;9.868;2023-04-08T02:58:30;5.80;99.90
20831;DHT22;10576;53.556;9.868;2023-04-08T03:00:55;5.70;99.90
20831;DHT22;10576;53.556;9.868;2023-04-08T03:03:21;5.70;99.90
20831;DHT22;10576;53.556;9.868;2023-04-08T03:05:56;5.60;99.90
20831;DHT22;10576;53.556;9.868;2023-04-08T03:08:22;5.60;99.90
20831;DHT22;10576;53.556;9.868;2023-04-08T03:10:48;5.70;99.90
20831;DHT22;10576;53.556;9.868;2023-04-08T03:13:15;5.80;99.90
20831;DHT22;10576;53.556;9.868;2023-04-08T03:15:41;5.80;99.90
20831;DHT22;10576;53.556;9.868;2023-04-08T03:20:33;5.90;99.90
20831;DHT22;10576;53.556;9.868;2023-04-08T03:22:58;5.80;99.90
20831;DHT22;10576;53.556;9.868;2023-04-08T03:25:24;5.60;99.90
20831;DHT22;10576;53.556;9.868;2023-04-08T03:27:50;5.80;99.90
20831;DHT22;10576;53.556;9.868;2023-04-08T03:30:16;5.80;99.90
20831;DHT22;10576;53.556;9.868;2023-04-08T03:32:41;5.70;99.90
20831;DHT22;10576;53.556;9.868;2023-04-08T03:35:08;5.90;99.90
20831;DHT22;10576;53.556;9.868;2023-04-08T03:37:33;5.70;99.90
20831;DHT22;10576;53.556;9.868;2023-04-08T03:39:59;5.70;99.90
20831;DHT22;10576;53.556;9.868;2023-04-08T03:42:24;5.70;99.90
20831;DHT22;10576;53.556;9.868;2023-04-08T03:44:50;5.70;99.90
20831;DHT22;10576;53.556;9.868;2023-04-08T03:47:16;5.80;99.90
20831;DHT22;10576;53.556;9.868;2023-04-08T03:49:41;5.80;99.90
20831;DHT22;10576;53.556;9.868;2023-04-08T03:52:07;5.70;99.90
20831;DHT22;10576;53.556;9.868;2023-04-08T03:54:33;5.80;99.90
20831;DHT22;10576;53.556;9.868;2023-04-08T03:56:58;5.50;99.90
20831;DHT22;10576;53.556;9.868;2023-04-08T03:59:24;5.50;99.90
20831;DHT22;10576;53.556;9.868;2023-04-08T04:01:50;5.60;99.90
20831;DHT22;10576;53.556;9.868;2023-04-08T04:04:16;5.70;99.90
20831;DHT22;10576;53.556;9.868;2023-04-08T04:06:42;5.50;99.90
20831;DHT22;10576;53.556;9.868;2023-04-08T04:09:07;5.50;99.90
20831;DHT22;10576;53.556;9.868;2023-04-08T04:11:34;5.70;99.90
20831;DHT22;10576;53.556;9.868;2023-04-08T04:14:00;5.40;99.90
20831;DHT22;10576;53.556;9.868;2023-04-08T04:16:25;5.50;99.90
20831;DHT22;10576;53.556;9.868;2023-04-08T04:18:52;5.40;99.90
20831;DHT22;10576;53.556;9.868;2023-04-08T04:21:18;5.30;99.90
20831;DHT22;10576;53.556;9.868;2023-04-08T04:23:43;5.30;99.90
20831;DHT22;10576;53.556;9.868;2023-04-08T04:26:10;5.30;99.90
20831;DHT22;10576;53.556;9.868;2023-04-08T04:28:36;5.20;99.90
20831;DHT22;10576;53.556;9.868;2023-04-08T04:31:02;5.20;99.90
20831;DHT22;10576;53.556;9.868;2023-04-08T04:33:28;5.20;99.90
20831;DHT22;10576;53.556;9.868;2023-04-08T04:35:53;5.10;99.90
20831;DHT22;10576;53.556;9.868;2023-04-08T04:38:19;5.40;99.90
20831;DHT22;10576;53.556;9.868;2023-04-08T04:40:44;5.30;99.90
20831;DHT22;10576;53.556;9.868;2023-04-08T04:43:10;5.60;99.90
20831;DHT22;10576;53.556;9.868;2023-04-08T04:45:36;5.40;99.90
20831;DHT22;10576;53.556;9.868;2023-04-08T04:48:01;5.30;99.90
20831;DHT22;10576;53.556;9.868;2023-04-08T04:50:28;5.40;99.90
20831;DHT22;10576;53.556;9.868;2023-04-08T04:52:54;5.40;99.90
20831;DHT22;10576;53.556;9.868;2023-04-08T04:55:19;5.20;99.90
20831;DHT22;10576;53.556;9.868;2023-04-08T04:57:47;5.40;99.90
20831;DHT22;10576;53.556;9.868;2023-04-08T05:00:13;5.00;99.90
20831;DHT22;10576;53.556;9.868;2023-04-08T05:02:39;5.40;99.90
20831;DHT22;10576;53.556;9.868;2023-04-08T05:05:05;5.30;99.90
20831;DHT22;10576;53.556;9.868;2023-04-08T05:07:35;5.10;99.90
20831;DHT22;10576;53.556;9.868;2023-04-08T05:10:01;5.30;99.90
20831;DHT22;10576;53.556;9.868;2023-04-08T05:12:29;5.20;99.90
20831;DHT22;10576;53.556;9.868;2023-04-08T05:14:56;5.40;99.90
20831;DHT22;10576;53.556;9.868;2023-04-08T05:17:22;5.20;99.90
20831;DHT22;10576;53.556;9.868;2023-04-08T05:19:47;5.20;99.90
20831;DHT22;10576;53.556;9.868;2023-04-08T05:22:14;5.30;99.90
20831;DHT22;10576;53.556;9.868;2023-04-08T05:24:39;5.50;99.90
20831;DHT22;10576;53.556;9.868;2023-04-08T05:27:05;5.40;99.90
20831;DHT22;10576;53.556;9.868;2023-04-08T05:29:31;5.50;99.90
20831;DHT22;10576;53.556;9.868;2023-04-08T05:31:57;5.50;99.90
20831;DHT22;10576;53.556;9.868;2023-04-08T05:34:23;5.40;99.90
20831;DHT22;10576;53.556;9.868;2023-04-08T05:36:49;5.50;99.90
20831;DHT22;10576;53.556;9.868;2023-04-08T05:39:17;5.30;99.90
20831;DHT22;10576;53.556;9.868;2023-04-08T05:41:43;5.50;99.90
20831;DHT22;10576;53.556;9.868;2023-04-08T05:44:09;5.40;99.90
20831;DHT22;10576;53.556;9.868;2023-04-08T05:46:36;5.40;99.90
20831;DHT22;10576;53.556;9.868;2023-04-08T05:49:01;5.40;99.90
20831;DHT22;10576;53.556;9.868;2023-04-08T05:51:27;5.60;99.90
20831;DHT22;10576;53.556;9.868;2023-04-08T05:53:53;5.30;99.90
20831;DHT22;10576;53.556;9.868;2023-04-08T05:56:18;5.40;99.90
20831;DHT22;10576;53.556;9.868;2023-04-08T05:58:44;5.70;99.90
20831;DHT22;10576;53.556;9.868;2023-04-08T06:01:10;5.40;99.90
20831;DHT22;10576;53.556;9.868;2023-04-08T06:03:35;5.40;99.90
20831;DHT22;10576;53.556;9.868;2023-04-08T06:06:01;5.40;99.90
20831;DHT22;10576;53.556;9.868;2023-04-08T06:08:27;5.50;99.90
20831;DHT22;10576;53.556;9.868;2023-04-08T06:10:52;5.30;99.90
20831;DHT22;10576;53.556;9.868;2023-04-08T06:13:18;5.30;99.90
20831;DHT22;10576;53.556;9.868;2023-04-08T06:15:46;5.30;99.90
20831;DHT22;10576;53.556;9.868;2023-04-08T06:18:14;5.20;99.90
20831;DHT22;10576;53.556;9.868;2023-04-08T06:20:40;5.40;99.90
20831;DHT22;10576;53.556;9.868;2023-04-08T06:23:06;5.30;99.90
20831;DHT22;10576;53.556;9.868;2023-04-08T06:25:31;5.30;99.90
20831;DHT22;10576;53.556;9.868;2023-04-08T06:27:57;5.60;99.90
20831;DHT22;10576;53.556;9.868;2023-04-08T06:30:23;5.50;99.90
20831;DHT22;10576;53.556;9.868;2023-04-08T06:32:48;5.20;99.90
20831;DHT22;10576;53.556;9.868;2023-04-08T06:35:14;5.50;99.90
20831;DHT22;10576;53.556;9.868;2023-04-08T06:37:40;5.40;99.90
20831;DHT22;10576;53.556;9.868;2023-04-08T06:40:06;5.60;99.90
20831;DHT22;10576;53.556;9.868;2023-04-08T06:42:32;5.70;99.90
20831;DHT22;10576;53.556;9.868;2023-04-08T06:44:57;5.60;99.90
20831;DHT22;10576;53.556;9.868;2023-04-08T06:47:23;5.50;99.90
20831;DHT22;10576;53.556;9.868;2023-04-08T06:52:15;5.40;99.90
20831;DHT22;10576;53.556;9.868;2023-04-08T06:54:41;5.40;99.90
20831;DHT22;10576;53.556;9.868;2023-04-08T06:57:07;5.30;99.90
20831;DHT22;10576;53.556;9.868;2023-04-08T06:59:32;5.20;99.90
20831;DHT22;10576;53.556;9.868;2023-04-08T07:01:58;5.40;99.90
20831;DHT22;10576;53.556;9.868;2023-04-08T07:04:24;5.50;99.90
20831;DHT22;10576;53.556;9.868;2023-04-08T07:06:51;5.60;99.90
20831;DHT22;10576;53.556;9.868;2023-04-08T07:09:16;5.50;99.90
20831;DHT22;10576;53.556;9.868;2023-04-08T07:11:42;5.40;99.90
20831;DHT22;10576;53.556;9.868;2023-04-08T07:14:08;5.50;99.90
20831;DHT22;10576;53.556;9.868;2023-04-08T07:16:33;5.80;99.90
20831;DHT22;10576;53.556;9.868;2023-04-08T07:18:59;5.80;99.90
20831;DHT22;10576;53.556;9.868;2023-04-08T07:21:25;5.80;99.90
20831;DHT22;10576;53.556;9.868;2023-04-08T07:23:51;5.90;99.90
20831;DHT22;10576;53.556;9.868;2023-04-08T07:26:16;5.80;99.90
20831;DHT22;10576;53.556;9.868;2023-04-08T07:28:42;5.70;99.90
20831;DHT22;10576;53.556;9.868;2023-04-08T07:31:13;5.80;99.90
20831;DHT22;10576;53.556;9.868;2023-04-08T07:33:40;5.80;99.90
20831;DHT22;10576;53.556;9.868;2023-04-08T07:36:08;5.90;99.90
20831;DHT22;10576;53.556;9.868;2023-04-08T07:38:34;5.90;99.90
20831;DHT22;10576;53.556;9.868;2023-04-08T07:41:00;5.90;99.90
20831;DHT22;10576;53.556;9.868;2023-04-08T07:43:25;6.00;99.90
20831;DHT22;10576;53.556;9.868;2023-04-08T07:45:51;5.80;99.90
20831;DHT22;10576;53.556;9.868;2023-04-08T07:48:17;5.90;99.90
20831;DHT22;10576;53.556;9.868;2023-04-08T07:50:43;5.70;99.90
20831;DHT22;10576;53.556;9.868;2023-04-08T07:53:10;5.70;99.90
20831;DHT22;10576;53.556;9.868;2023-04-08T07:55:36;6.10;99.90
20831;DHT22;10576;53.556;9.868;2023-04-08T07:58:03;6.00;99.90
20831;DHT22;10576;53.556;9.868;2023-04-08T08:00:29;6.00;99.90
20831;DHT22;10576;53.556;9.868;2023-04-08T08:02:55;6.00;99.90
20831;DHT22;10576;53.556;9.868;2023-04-08T08:05:21;6.20;99.90
20831;DHT22;10576;53.556;9.868;2023-04-08T08:07:47;6.30;99.90
20831;DHT22;10576;53.556;9.868;2023-04-08T08:10:12;6.30;99.90
20831;DHT22;10576;53.556;9.868;2023-04-08T08:12:38;6.10;99.90
20831;DHT22;10576;53.556;9.868;2023-04-08T08:15:04;6.00;99.90
20831;DHT22;10576;53.556;9.868;2023-04-08T08:17:30;6.00;99.90
20831;DHT22;10576;53.556;9.868;2023-04-08T08:19:58;5.90;99.90
20831;DHT22;10576;53.556;9.868;2023-04-08T08:22:24;5.80;99.90
20831;DHT22;10576;53.556;9.868;2023-04-08T08:24:57;6.00;99.90
20831;DHT22;10576;53.556;9.868;2023-04-08T08:27:24;5.90;99.90
20831;DHT22;10576;53.556;9.868;2023-04-08T08:29:50;5.90;99.90
20831;DHT22;10576;53.556;9.868;2023-04-08T08:32:16;6.00;99.90
20831;DHT22;10576;53.556;9.868;2023-04-08T08:34:42;6.20;99.90
20831;DHT22;10576;53.556;9.868;2023-04-08T08:37:08;6.40;99.90
20831;DHT22;10576;53.556;9.868;2023-04-08T08:41:59;6.50;99.90
20831;DHT22;10576;53.556;9.868;2023-04-08T08:44:25;6.40;99.90
20831;DHT22;10576;53.556;9.868;2023-04-08T08:46:51;6.50;99.90
20831;DHT22;10576;53.556;9.868;2023-04-08T08:49:17;6.70;99.90
20831;DHT22;10576;53.556;9.868;2023-04-08T08:51:45;6.50;99.90
20831;DHT22;10576;53.556;9.868;2023-04-08T08:54:12;6.30;99.90
20831;DHT22;10576;53.556;9.868;2023-04-08T08:56:38;6.30;99.90
20831;DHT22;10576;53.556;9.868;2023-04-08T08:59:04;6.50;99.90
20831;DHT22;10576;53.556;9.868;2023-04-08T09:01:38;6.40;99.90
20831;DHT22;10576;53.556;9.868;2023-04-08T09:04:12;6.50;99.90
20831;DHT22;10576;53.556;9.868;2023-04-08T09:06:40;6.80;99.90
20831;DHT22;10576;53.556;9.868;2023-04-08T09:09:07;6.10;99.90
20831;DHT22;10576;53.556;9.868;2023-04-08T09:11:37;6.40;99.90
20831;DHT22;10576;53.556;9.868;2023-04-08T09:14:05;6.60;99.90
20831;DHT22;10576;53.556;9.868;2023-04-08T09:16:32;6.70;99.90
20831;DHT22;10576;53.556;9.868;2023-04-08T09:19:08;6.60;99.90
20831;DHT22;10576;53.556;9.868;2023-04-08T09:21:35;6.80;99.90
20831;DHT22;10576;53.556;9.868;2023-04-08T09:24:00;6.90;99.90
20831;DHT22;10576;53.556;9.868;2023-04-08T09:26:26;6.70;99.90
20831;DHT22;10576;53.556;9.868;2023-04-08T09:28:59;6.70;99.90
20831;DHT22;10576;53.556;9.868;2023-04-08T09:31:29;6.80;99.90
20831;DHT22;10576;53.556;9.868;2023-04-08T09:34:00;7.10;99.90
20831;DHT22;10576;53.556;9.868;2023-04-08T09:36:33;7.00;99.90
20831;DHT22;10576;53.556;9.868;2023-04-08T09:38:59;7.00;99.90
20831;DHT22;10576;53.556;9.868;2023-04-08T09:41:27;7.30;99.90
20831;DHT22;10576;53.556;9.868;2023-04-08T09:43:54;7.10;99.90
20831;DHT22;10576;53.556;9.868;2023-04-08T09:46:55;7.10;99.90
20831;DHT22;10576;53.556;9.868;2023-04-08T09:49:33;7.20;99.90
20831;DHT22;10576;53.556;9.868;2023-04-08T09:52:23;7.10;99.90
20831;DHT22;10576;53.556;9.868;2023-04-08T09:57:50;7.30;99.90
20831;DHT22;10576;53.556;9.868;2023-04-08T10:00:23;7.30;99.90
20831;DHT22;10576;53.556;9.868;2023-04-08T10:05:21;7.40;99.90
20831;DHT22;10576;53.556;9.868;2023-04-08T10:07:49;7.40;99.90
20831;DHT22;10576;53.556;9.868;2023-04-08T10:10:15;7.30;99.90
20831;DHT22;10576;53.556;9.868;2023-04-08T10:12:41;7.40;99.90
20831;DHT22;10576;53.556;9.868;2023-04-08T10:15:32;7.00;99.90
20831;DHT22;10576;53.556;9.868;2023-04-08T10:25:32;7.60;99.90
20831;DHT22;10576;53.556;9.868;2023-04-08T10:33:12;7.40;99.90
20831;DHT22;10576;53.556;9.868;2023-04-08T10:36:10;7.30;99.90
20831;DHT22;10576;53.556;9.868;2023-04-08T10:38:41;7.50;99.90
20831;DHT22;10576;53.556;9.868;2023-04-08T10:41:09;7.30;99.90
20831;DHT22;10576;53.556;9.868;2023-04-08T10:43:36;7.50;99.90
20831;DHT22;10576;53.556;9.868;2023-04-08T10:46:02;7.50;99.90
20831;DHT22;10576;53.556;9.868;2023-04-08T10:48:29;7.50;99.90
20831;DHT22;10576;53.556;9.868;2023-04-08T10:53:30;7.40;99.90
20831;DHT22;10576;53.556;9.868;2023-04-08T10:58:32;7.60;99.90
20831;DHT22;10576;53.556;9.868;2023-04-08T11:01:03;7.60;99.90
20831;DHT22;10576;53.556;9.868;2023-04-08T11:03:34;7.50;99.90
20831;DHT22;10576;53.556;9.868;2023-04-08T11:06:01;7.60;99.90
20831;DHT22;10576;53.556;9.868;2023-04-08T11:08:28;7.70;99.90
20831;DHT22;10576;53.556;9.868;2023-04-08T11:10:54;7.90;99.90
20831;DHT22;10576;53.556;9.868;2023-04-08T11:13:20;7.90;99.90
20831;DHT22;10576;53.556;9.868;2023-04-08T11:15:46;7.80;99.90
20831;DHT22;10576;53.556;9.868;2023-04-08T11:18:12;7.80;99.90
20831;DHT22;10576;53.556;9.868;2023-04-08T11:20:38;7.60;99.90
20831;DHT22;10576;53.556;9.868;2023-04-08T11:23:13;7.90;99.90
20831;DHT22;10576;53.556;9.868;2023-04-08T11:25:43;7.80;99.90
20831;DHT22;10576;53.556;9.868;2023-04-08T11:28:10;7.70;99.90
20831;DHT22;10576;53.556;9.868;2023-04-08T11:30:38;7.80;99.90
20831;DHT22;10576;53.556;9.868;2023-04-08T11:33:05;7.40;99.90
20831;DHT22;10576;53.556;9.868;2023-04-08T11:35:30;7.60;99.90
20831;DHT22;10576;53.556;9.868;2023-04-08T11:37:56;7.90;99.90
20831;DHT22;10576;53.556;9.868;2023-04-08T11:40:23;7.80;99.90
20831;DHT22;10576;53.556;9.868;2023-04-08T11:42:49;7.90;99.90
20831;DHT22;10576;53.556;9.868;2023-04-08T11:45:17;7.70;99.90
20831;DHT22;10576;53.556;9.868;2023-04-08T11:47:44;7.90;99.90
20831;DHT22;10576;53.556;9.868;2023-04-08T11:50:11;8.40;99.90
20831;DHT22;10576;53.556;9.868;2023-04-08T11:52:40;7.80;99.90
20831;DHT22;10576;53.556;9.868;2023-04-08T11:55:06;7.80;99.90
20831;DHT22;10576;53.556;9.868;2023-04-08T11:57:32;8.10;99.90
20831;DHT22;10576;53.556;9.868;2023-04-08T11:59:57;7.90;99.90
20831;DHT22;10576;53.556;9.868;2023-04-08T12:02:23;8.10;99.90
20831;DHT22;10576;53.556;9.868;2023-04-08T12:04:49;7.90;99.90
20831;DHT22;10576;53.556;9.868;2023-04-08T12:07:15;7.90;99.90
20831;DHT22;10576;53.556;9.868;2023-04-08T12:09:42;8.00;99.90
20831;DHT22;10576;53.556;9.868;2023-04-08T12:12:07;7.70;99.90
20831;DHT22;10576;53.556;9.868;2023-04-08T12:14:33;7.80;99.90
20831;DHT22;10576;53.556;9.868;2023-04-08T12:16:58;8.10;99.90
20831;DHT22;10576;53.556;9.868;2023-04-08T12:19:24;7.90;99.90
20831;DHT22;10576;53.556;9.868;2023-04-08T12:21:50;8.00;99.90
20831;DHT22;10576;53.556;9.868;2023-04-08T12:24:15;7.90;99.90
20831;DHT22;10576;53.556;9.868;2023-04-08T12:26:41;8.20;99.90
20831;DHT22;10576;53.556;9.868;2023-04-08T12:29:06;8.10;99.90
20831;DHT22;10576;53.556;9.868;2023-04-08T12:31:36;8.00;99.90
20831;DHT22;10576;53.556;9.868;2023-04-08T12:34:01;8.10;99.90
20831;DHT22;10576;53.556;9.868;2023-04-08T12:36:27;8.40;99.90
20831;DHT22;10576;53.556;9.868;2023-04-08T12:38:52;8.60;99.90
20831;DHT22;10576;53.556;9.868;2023-04-08T12:41:18;8.30;99.90
20831;DHT22;10576;53.556;9.868;2023-04-08T12:43:44;8.20;99.90
20831;DHT22;10576;53.556;9.868;2023-04-08T12:46:09;7.90;99.90
20831;DHT22;10576;53.556;9.868;2023-04-08T12:48:35;8.60;99.90
20831;DHT22;10576;53.556;9.868;2023-04-08T12:51:01;8.40;99.90
20831;DHT22;10576;53.556;9.868;2023-04-08T12:55:52;8.00;99.90
20831;DHT22;10576;53.556;9.868;2023-04-08T12:58:22;7.90;99.90
20831;DHT22;10576;53.556;9.868;2023-04-08T13:00:49;8.30;99.90
20831;DHT22;10576;53.556;9.868;2023-04-08T13:03:15;7.80;99.90
20831;DHT22;10576;53.556;9.868;2023-04-08T13:05:42;7.70;99.90
20831;DHT22;10576;53.556;9.868;2023-04-08T13:08:09;7.80;99.90
20831;DHT22;10576;53.556;9.868;2023-04-08T13:10:35;7.90;99.90
20831;DHT22;10576;53.556;9.868;2023-04-08T13:13:00;7.90;99.90
20831;DHT22;10576;53.556;9.868;2023-04-08T13:15:27;8.00;99.90
20831;DHT22;10576;53.556;9.868;2023-04-08T13:17:52;8.20;99.90
20831;DHT22;10576;53.556;9.868;2023-04-08T13:20:18;8.10;99.90
20831;DHT22;10576;53.556;9.868;2023-04-08T13:22:44;7.80;99.90
20831;DHT22;10576;53.556;9.868;2023-04-08T13:25:10;8.10;99.90
20831;DHT22;10576;53.556;9.868;2023-04-08T13:27:36;8.10;99.90
20831;DHT22;10576;53.556;9.868;2023-04-08T13:30:01;8.20;99.90
20831;DHT22;10576;53.556;9.868;2023-04-08T13:32:27;8.30;99.90
20831;DHT22;10576;53.556;9.868;2023-04-08T13:34:53;8.30;99.90
20831;DHT22;10576;53.556;9.868;2023-04-08T13:37:18;8.30;99.90
20831;DHT22;10576;53.556;9.868;2023-04-08T13:39:44;8.20;99.90
20831;DHT22;10576;53.556;9.868;2023-04-08T13:42:10;8.10;99.90
20831;DHT22;10576;53.556;9.868;2023-04-08T13:47:01;8.40;99.90
20831;DHT22;10576;53.556;9.868;2023-04-08T13:49:27;8.10;99.90
20831;DHT22;10576;53.556;9.868;2023-04-08T13:51:53;8.20;99.90
20831;DHT22;10576;53.556;9.868;2023-04-08T13:54:18;8.10;99.90
20831;DHT22;10576;53.556;9.868;2023-04-08T13:59:10;8.30;99.90
20831;DHT22;10576;53.556;9.868;2023-04-08T14:04:02;7.80;99.90
20831;DHT22;10576;53.556;9.868;2023-04-08T14:06:28;8.00;99.90
20831;DHT22;10576;53.556;9.868;2023-04-08T14:08:53;7.90;99.90
20831;DHT22;10576;53.556;9.868;2023-04-08T14:11:19;8.20;99.90
20831;DHT22;10576;53.556;9.868;2023-04-08T14:18:37;8.30;99.90
20831;DHT22;10576;53.556;9.868;2023-04-08T14:21:03;7.70;99.90
20831;DHT22;10576;53.556;9.868;2023-04-08T14:23:30;7.80;99.90
20831;DHT22;10576;53.556;9.868;2023-04-08T14:25:55;7.70;99.90
20831;DHT22;10576;53.556;9.868;2023-04-08T14:28:21;7.80;99.90
20831;DHT22;10576;53.556;9.868;2023-04-08T14:30:46;7.80;99.90
20831;DHT22;10576;53.556;9.868;2023-04-08T14:33:12;7.80;99.90
20831;DHT22;10576;53.556;9.868;2023-04-08T14:35:38;7.90;99.90
20831;DHT22;10576;53.556;9.868;2023-04-08T14:38:04;7.80;99.90
20831;DHT22;10576;53.556;9.868;2023-04-08T14:40:30;7.70;99.90
20831;DHT22;10576;53.556;9.868;2023-04-08T14:42:55;7.70;99.90
20831;DHT22;10576;53.556;9.868;2023-04-08T14:45:21;7.80;99.90
20831;DHT22;10576;53.556;9.868;2023-04-08T14:50:13;7.80;99.90
20831;DHT22;10576;53.556;9.868;2023-04-08T14:52:38;8.10;99.90
20831;DHT22;10576;53.556;9.868;2023-04-08T14:55:05;7.90;99.90
20831;DHT22;10576;53.556;9.868;2023-04-08T14:57:31;7.90;99.90
20831;DHT22;10576;53.556;9.868;2023-04-08T14:59:57;7.70;99.90
20831;DHT22;10576;53.556;9.868;2023-04-08T15:02:23;7.90;99.90
20831;DHT22;10576;53.556;9.868;2023-04-08T15:04:49;7.90;99.90
20831;DHT22;10576;53.556;9.868;2023-04-08T15:07:14;8.00;99.90
20831;DHT22;10576;53.556;9.868;2023-04-08T15:09:40;7.90;99.90
20831;DHT22;10576;53.556;9.868;2023-04-08T15:12:06;7.80;99.90
20831;DHT22;10576;53.556;9.868;2023-04-08T15:14:31;7.70;99.90
20831;DHT22;10576;53.556;9.868;2023-04-08T15:16:57;7.70;99.90
20831;DHT22;10576;53.556;9.868;2023-04-08T15:19:23;7.50;99.90
20831;DHT22;10576;53.556;9.868;2023-04-08T15:21:48;7.60;99.90
20831;DHT22;10576;53.556;9.868;2023-04-08T15:24:14;7.80;99.90
20831;DHT22;10576;53.556;9.868;2023-04-08T15:26:40;8.00;99.90
20831;DHT22;10576;53.556;9.868;2023-04-08T15:29:05;7.90;99.90
20831;DHT22;10576;53.556;9.868;2023-04-08T15:31:31;8.20;99.90
20831;DHT22;10576;53.556;9.868;2023-04-08T15:33:57;7.90;99.90
20831;DHT22;10576;53.556;9.868;2023-04-08T15:36:23;7.80;99.90
20831;DHT22;10576;53.556;9.868;2023-04-08T15:38:49;7.90;99.90
20831;DHT22;10576;53.556;9.868;2023-04-08T15:41:18;7.70;99.90
20831;DHT22;10576;53.556;9.868;2023-04-08T15:43:44;7.90;99.90
20831;DHT22;10576;53.556;9.868;2023-04-08T15:46:10;7.60;99.90
20831;DHT22;10576;53.556;9.868;2023-04-08T15:48:36;7.60;99.90
20831;DHT22;10576;53.556;9.868;2023-04-08T15:51:08;7.90;99.90
20831;DHT22;10576;53.556;9.868;2023-04-08T15:53:35;7.50;99.90
20831;DHT22;10576;53.556;9.868;2023-04-08T15:56:01;7.90;99.90
20831;DHT22;10576;53.556;9.868;2023-04-08T15:58:28;7.70;99.90
20831;DHT22;10576;53.556;9.868;2023-04-08T16:00:53;7.80;99.90
20831;DHT22;10576;53.556;9.868;2023-04-08T16:03:22;7.50;99.90
20831;DHT22;10576;53.556;9.868;2023-04-08T16:05:48;7.70;99.90
20831;DHT22;10576;53.556;9.868;2023-04-08T16:08:14;7.70;99.90
20831;DHT22;10576;53.556;9.868;2023-04-08T16:10:39;7.70;99.90
20831;DHT22;10576;53.556;9.868;2023-04-08T16:13:06;7.30;99.90
20831;DHT22;10576;53.556;9.868;2023-04-08T16:15:32;7.60;99.90
20831;DHT22;10576;53.556;9.868;2023-04-08T16:17:58;7.40;99.90
20831;DHT22;10576;53.556;9.868;2023-04-08T16:20:24;7.40;99.90
20831;DHT22;10576;53.556;9.868;2023-04-08T16:25:16;7.50;99.90
20831;DHT22;10576;53.556;9.868;2023-04-08T16:30:08;7.60;99.90
20831;DHT22;10576;53.556;9.868;2023-04-08T16:32:34;7.70;99.90
20831;DHT22;10576;53.556;9.868;2023-04-08T16:35:01;7.70;99.90
20831;DHT22;10576;53.556;9.868;2023-04-08T16:37:26;7.50;99.90
20831;DHT22;10576;53.556;9.868;2023-04-08T16:39:52;7.60;99.90
20831;DHT22;10576;53.556;9.868;2023-04-08T16:42:18;7.50;99.90
20831;DHT22;10576;53.556;9.868;2023-04-08T16:44:43;7.50;99.90